Time;durP1;ratioP1;P1;durP2;ratioP2;P2;SDS_P1;SDS_P2;PMS_P1;PMS_P2;Temp;Humidity;BMP_temperature;BMP_pressure;BME280_temperature;BME280_humidity;BME280_pressure;Samples;Min_cycle;Max_cycle;Signal;HPM_P1;HPM_P2
2022/10/12 00:02:17;;;;;;;15.37;4.30;;;6.90;99.90;;;;;;5094710;28;20228;-60
2022/10/12 00:04:43;;;;;;;9.03;3.30;;;6.90;99.90;;;;;;5094765;28;20735;-60
2022/10/12 00:07:10;;;;;;;14.60;4.00;;;6.90;99.90;;;;;;5094704;28;20283;-60
2022/10/12 00:09:37;;;;;;;9.23;3.33;;;6.90;99.90;;;;;;5094584;28;20923;-60
2022/10/12 00:12:03;;;;;;;8.03;3.27;;;6.90;99.90;;;;;;5094530;28;20208;-60
2022/10/12 00:14:31;;;;;;;10.63;3.53;;;6.90;99.90;;;;;;5094859;28;20204;-60
2022/10/12 00:16:58;;;;;;;9.87;3.40;;;6.90;99.90;;;;;;5094446;28;20266;-60
2022/10/12 00:19:25;;;;;;;7.80;2.90;;;6.90;99.90;;;;;;5094463;28;20637;-60
2022/10/12 00:21:51;;;;;;;8.77;3.23;;;6.90;99.90;;;;;;5094464;28;20613;-60
2022/10/12 00:24:18;;;;;;;10.13;2.60;;;7.00;99.90;;;;;;5093548;28;20208;-60
2022/10/12 00:26:45;;;;;;;10.10;3.20;;;7.00;99.90;;;;;;5093922;28;20265;-60
2022/10/12 00:29:11;;;;;;;7.57;3.10;;;7.00;99.90;;;;;;5094486;28;20273;-60
2022/10/12 00:31:39;;;;;;;7.70;3.07;;;6.90;99.90;;;;;;5094157;28;20242;-59
2022/10/12 00:34:06;;;;;;;8.97;2.63;;;7.00;99.90;;;;;;5094241;28;20671;-60
2022/10/12 00:36:34;;;;;;;8.87;2.90;;;7.00;99.90;;;;;;5093931;28;20307;-60
2022/10/12 00:39:03;;;;;;;7.60;2.83;;;7.00;99.90;;;;;;5094448;28;20224;-60
2022/10/12 00:41:32;;;;;;;8.43;3.03;;;7.00;99.90;;;;;;5094128;28;20228;-60
2022/10/12 00:43:59;;;;;;;7.57;3.00;;;7.00;99.90;;;;;;5094379;28;20200;-60
2022/10/12 00:46:30;;;;;;;7.37;3.10;;;7.00;99.90;;;;;;5094064;28;20662;-60
2022/10/12 00:49:05;;;;;;;9.10;3.00;;;7.00;99.90;;;;;;5093926;28;20282;-59
2022/10/12 00:51:31;;;;;;;10.83;3.10;;;7.00;99.90;;;;;;5093871;28;20251;-60
2022/10/12 00:54:04;;;;;;;9.20;2.50;;;6.90;99.90;;;;;;5093771;28;20209;-60
2022/10/12 00:56:36;;;;;;;13.13;3.20;;;6.90;99.90;;;;;;5093823;28;20204;-60
2022/10/12 00:59:06;;;;;;;12.37;3.20;;;7.00;99.90;;;;;;5093710;28;20600;-60
2022/10/12 01:01:35;;;;;;;13.53;2.70;;;6.90;99.90;;;;;;5093569;28;20220;-60
2022/10/12 01:04:05;;;;;;;7.70;2.70;;;6.90;99.90;;;;;;5093738;28;20261;-60
2022/10/12 01:06:33;;;;;;;9.03;3.20;;;6.90;99.90;;;;;;5093732;28;20204;-60
2022/10/12 01:09:00;;;;;;;8.93;3.33;;;6.90;99.90;;;;;;5093490;28;20714;-60
2022/10/12 01:11:27;;;;;;;10.30;2.70;;;6.90;99.90;;;;;;5093546;28;20232;-60
2022/10/12 01:13:54;;;;;;;7.10;2.70;;;6.90;99.90;;;;;;5093434;28;20207;-60
2022/10/12 01:16:28;;;;;;;6.73;2.50;;;6.90;99.90;;;;;;5093353;28;20209;-60
2022/10/12 01:19:04;;;;;;;10.73;2.67;;;6.90;99.90;;;;;;5093260;28;20277;-59
2022/10/12 01:21:37;;;;;;;10.03;3.03;;;6.90;99.90;;;;;;5093570;28;20277;-59
2022/10/12 01:24:39;;;;;;;4.80;3.10;;;6.90;99.90;;;;;;5093339;28;20196;-59
2022/10/12 01:27:27;;;;;;;4.83;2.47;;;6.90;99.90;;;;;;5092769;28;20203;-59
2022/10/12 01:30:18;;;;;;;9.43;2.73;;;6.90;99.90;;;;;;5093240;28;20729;-60
2022/10/12 01:33:05;;;;;;;6.37;2.53;;;6.80;99.90;;;;;;5093218;28;20204;-60
2022/10/12 01:35:42;;;;;;;6.80;2.83;;;6.80;99.90;;;;;;5092038;28;20695;-60
2022/10/12 01:38:21;;;;;;;5.40;2.40;;;6.80;99.90;;;;;;5092643;28;20223;-60
2022/10/12 01:40:54;;;;;;;8.50;2.63;;;6.80;99.90;;;;;;5093273;28;20210;-60
2022/10/12 01:43:22;;;;;;;8.87;2.57;;;6.80;99.90;;;;;;5092905;28;20219;-60
2022/10/12 01:45:50;;;;;;;6.97;2.83;;;6.80;99.90;;;;;;5092673;28;20755;-60
2022/10/12 01:48:18;;;;;;;8.90;2.93;;;6.80;99.90;;;;;;5092894;28;20260;-60
2022/10/12 01:50:49;;;;;;;6.07;2.60;;;6.80;99.90;;;;;;5093025;28;20607;-60
2022/10/12 01:53:24;;;;;;;8.03;2.67;;;6.80;99.90;;;;;;5092873;28;20276;-60
2022/10/12 01:55:55;;;;;;;8.13;2.60;;;6.80;99.90;;;;;;5092694;28;20249;-60
2022/10/12 01:58:40;;;;;;;6.63;2.37;;;6.70;99.90;;;;;;5092618;28;20221;-60
2022/10/12 02:01:19;;;;;;;7.83;3.10;;;6.70;99.90;;;;;;5092793;28;20200;-60
2022/10/12 02:03:51;;;;;;;7.50;2.80;;;6.70;99.90;;;;;;5092466;28;20206;-59
2022/10/12 02:06:21;;;;;;;5.50;2.60;;;6.70;99.90;;;;;;5092407;28;20212;-60
2022/10/12 02:08:55;;;;;;;9.87;3.07;;;6.70;99.90;;;;;;5092199;28;20640;-60
2022/10/12 02:11:24;;;;;;;6.33;2.70;;;6.70;99.90;;;;;;5092654;28;20207;-60
2022/10/12 02:13:54;;;;;;;7.80;2.57;;;6.60;99.90;;;;;;5092390;28;20208;-59
2022/10/12 02:16:28;;;;;;;7.47;2.30;;;6.60;99.90;;;;;;5092208;28;20245;-60
2022/10/12 02:18:57;;;;;;;3.40;2.00;;;6.60;99.90;;;;;;5092130;28;20285;-59
2022/10/12 02:21:29;;;;;;;9.47;2.77;;;6.60;99.90;;;;;;5092233;28;20208;-58
2022/10/12 02:23:59;;;;;;;9.03;2.70;;;6.70;99.90;;;;;;5092416;28;20188;-60
2022/10/12 02:26:27;;;;;;;11.83;2.43;;;6.60;99.90;;;;;;5091819;28;20803;-60
2022/10/12 02:28:56;;;;;;;10.33;2.83;;;6.60;99.90;;;;;;5092018;28;20224;-59
2022/10/12 02:31:35;;;;;;;8.37;2.73;;;6.70;99.90;;;;;;5092253;28;20277;-60
2022/10/12 02:34:09;;;;;;;5.73;2.97;;;6.60;99.90;;;;;;5092287;28;20185;-60
2022/10/12 02:36:41;;;;;;;6.93;2.70;;;6.60;99.90;;;;;;5092262;28;20237;-59
2022/10/12 02:39:13;;;;;;;8.93;2.50;;;6.70;99.90;;;;;;5091868;28;20227;-59
2022/10/12 02:41:46;;;;;;;7.57;2.80;;;6.70;99.90;;;;;;5092305;28;20211;-59
2022/10/12 02:44:15;;;;;;;9.57;3.03;;;6.60;99.90;;;;;;5092185;28;20200;-59
2022/10/12 02:46:47;;;;;;;8.77;2.67;;;6.70;99.90;;;;;;5091644;28;20204;-59
2022/10/12 02:49:15;;;;;;;7.13;2.60;;;6.70;99.90;;;;;;5091837;28;20227;-57
2022/10/12 02:51:43;;;;;;;5.90;2.77;;;6.60;99.90;;;;;;5092488;28;20208;-58
2022/10/12 02:54:10;;;;;;;11.23;2.60;;;6.60;99.90;;;;;;5091903;28;20207;-59
2022/10/12 02:56:43;;;;;;;5.13;2.50;;;6.60;99.90;;;;;;5092122;28;20278;-59
2022/10/12 02:59:09;;;;;;;6.93;2.70;;;6.60;99.90;;;;;;5091805;28;20235;-59
2022/10/12 03:01:36;;;;;;;7.70;2.80;;;6.60;99.90;;;;;;5092080;28;20258;-58
2022/10/12 03:04:04;;;;;;;8.67;2.57;;;6.60;99.90;;;;;;5091923;28;20265;-60
2022/10/12 03:06:31;;;;;;;6.90;2.40;;;6.60;99.90;;;;;;5091506;28;20265;-59
2022/10/12 03:08:58;;;;;;;7.87;2.10;;;6.60;99.90;;;;;;5091729;28;20269;-58
2022/10/12 03:11:24;;;;;;;8.23;2.30;;;6.60;99.90;;;;;;5091782;28;20702;-60
2022/10/12 03:13:52;;;;;;;6.30;2.77;;;6.60;99.90;;;;;;5091546;28;20200;-59
2022/10/12 03:16:19;;;;;;;6.60;2.60;;;6.60;99.90;;;;;;5091631;28;20261;-60
2022/10/12 03:18:46;;;;;;;5.43;2.43;;;6.60;99.90;;;;;;5091659;28;20224;-59
2022/10/12 03:21:14;;;;;;;7.63;2.80;;;6.60;99.90;;;;;;5091737;28;20204;-59
2022/10/12 03:23:40;;;;;;;4.60;2.57;;;6.50;99.90;;;;;;5091242;28;20228;-60
2022/10/12 03:26:07;;;;;;;6.43;2.53;;;6.50;99.90;;;;;;5091216;28;20216;-60
2022/10/12 03:28:35;;;;;;;5.27;2.43;;;6.50;99.90;;;;;;5091517;28;20231;-60
2022/10/12 03:31:02;;;;;;;8.13;2.63;;;6.50;99.90;;;;;;5091642;28;20211;-59
2022/10/12 03:33:29;;;;;;;6.23;2.60;;;6.50;99.90;;;;;;5091527;28;20257;-60
2022/10/12 03:35:56;;;;;;;5.93;2.00;;;6.50;99.90;;;;;;5091443;28;20254;-59
2022/10/12 03:38:23;;;;;;;6.53;2.47;;;6.40;99.90;;;;;;5091356;28;20632;-59
2022/10/12 03:40:50;;;;;;;9.20;2.47;;;6.40;99.90;;;;;;5091278;28;20200;-60
2022/10/12 03:43:17;;;;;;;3.57;2.17;;;6.40;99.90;;;;;;5091530;28;20228;-60
2022/10/12 03:45:43;;;;;;;7.83;2.77;;;6.40;99.90;;;;;;5091368;28;20679;-60
2022/10/12 03:48:11;;;;;;;5.43;2.53;;;6.40;99.90;;;;;;5091293;28;20231;-59
2022/10/12 03:50:37;;;;;;;7.73;2.20;;;6.40;99.90;;;;;;5091332;28;20204;-59
2022/10/12 03:53:05;;;;;;;13.53;6.40;;;6.40;99.90;;;;;;5091283;28;20209;-59
2022/10/12 03:55:34;;;;;;;9.37;4.93;;;6.40;99.90;;;;;;5091333;28;20208;-58
2022/10/12 03:58:00;;;;;;;11.77;4.93;;;6.40;99.90;;;;;;5091637;28;20208;-59
2022/10/12 04:00:28;;;;;;;8.00;2.70;;;6.40;99.90;;;;;;5095128;28;20212;-59
2022/10/12 04:02:55;;;;;;;4.07;2.20;;;6.40;99.90;;;;;;5094808;28;20273;-59
2022/10/12 04:05:22;;;;;;;8.43;2.67;;;6.40;99.90;;;;;;5094953;28;20204;-59
2022/10/12 04:07:48;;;;;;;8.30;2.43;;;6.40;99.90;;;;;;5094815;28;20257;-59
2022/10/12 04:10:15;;;;;;;10.13;2.37;;;6.40;99.90;;;;;;5094653;28;20250;-59
2022/10/12 04:12:44;;;;;;;7.40;2.50;;;6.40;99.90;;;;;;5094841;28;20207;-59
2022/10/12 04:15:11;;;;;;;7.97;2.20;;;6.40;99.90;;;;;;5094599;28;20204;-59
2022/10/12 04:17:38;;;;;;;5.13;2.10;;;6.40;99.90;;;;;;5094467;28;20620;-59
2022/10/12 04:20:05;;;;;;;8.50;2.10;;;6.40;99.90;;;;;;5094346;28;20228;-59
2022/10/12 04:22:32;;;;;;;8.07;2.00;;;6.40;99.90;;;;;;5094607;28;20220;-59
2022/10/12 04:24:59;;;;;;;8.23;2.17;;;6.50;99.90;;;;;;5094227;28;20662;-59
2022/10/12 04:27:25;;;;;;;7.30;2.00;;;6.40;99.90;;;;;;5094388;28;20207;-59
2022/10/12 04:29:53;;;;;;;4.20;1.87;;;6.40;99.90;;;;;;5094288;28;20236;-59
2022/10/12 04:32:20;;;;;;;6.43;2.70;;;6.40;99.90;;;;;;5094321;28;20277;-59
2022/10/12 04:34:47;;;;;;;8.70;2.30;;;6.40;99.90;;;;;;5094389;28;20212;-59
2022/10/12 04:37:13;;;;;;;5.73;1.93;;;6.40;99.90;;;;;;5094088;28;20204;-59
2022/10/12 04:39:40;;;;;;;7.23;2.20;;;6.50;99.90;;;;;;5094092;28;20224;-58
2022/10/12 04:42:07;;;;;;;5.23;2.03;;;6.50;99.90;;;;;;5094170;28;20208;-59
2022/10/12 04:44:33;;;;;;;4.87;2.43;;;6.50;99.90;;;;;;5093934;28;20663;-59
2022/10/12 04:47:02;;;;;;;5.67;2.23;;;6.50;99.90;;;;;;5093699;28;20204;-59
2022/10/12 04:49:29;;;;;;;7.13;2.07;;;6.50;99.90;;;;;;5093712;28;20758;-59
2022/10/12 04:51:55;;;;;;;7.37;2.37;;;6.50;99.90;;;;;;5092530;28;20263;-57
2022/10/12 04:54:22;;;;;;;7.03;2.37;;;6.50;99.90;;;;;;5092700;28;20208;-58
2022/10/12 04:56:49;;;;;;;6.43;2.47;;;6.50;99.90;;;;;;5093230;28;20204;-58
2022/10/12 04:59:16;;;;;;;6.63;2.37;;;6.50;99.90;;;;;;5093587;28;20224;-58
2022/10/12 05:01:42;;;;;;;5.37;2.20;;;6.60;99.90;;;;;;5093013;28;20215;-58
2022/10/12 05:04:10;;;;;;;12.53;2.73;;;6.60;99.90;;;;;;5093386;28;20315;-58
2022/10/12 05:06:37;;;;;;;7.50;3.60;;;6.60;99.90;;;;;;5092990;28;20204;-58
2022/10/12 05:09:04;;;;;;;9.67;3.13;;;6.60;99.90;;;;;;5093101;28;20224;-58
2022/10/12 05:11:31;;;;;;;8.90;2.90;;;6.50;99.90;;;;;;5093047;28;20204;-58
2022/10/12 05:13:57;;;;;;;6.57;2.70;;;6.40;99.90;;;;;;5093173;28;20200;-58
2022/10/12 05:16:24;;;;;;;4.77;2.47;;;6.30;99.90;;;;;;5092652;28;20223;-57
2022/10/12 05:18:51;;;;;;;11.37;3.03;;;6.20;99.90;;;;;;5093278;28;20236;-58
2022/10/12 05:21:19;;;;;;;9.60;2.67;;;6.20;99.90;;;;;;5093065;28;20200;-57
2022/10/12 05:23:50;;;;;;;7.93;2.63;;;6.20;99.90;;;;;;5092633;28;20232;-58
2022/10/12 05:26:17;;;;;;;10.30;2.87;;;6.20;99.90;;;;;;5092596;28;20630;-57
2022/10/12 05:28:43;;;;;;;8.07;3.30;;;6.10;99.90;;;;;;5092087;28;20228;-58
2022/10/12 05:31:10;;;;;;;11.10;3.30;;;6.10;99.90;;;;;;5093258;28;20216;-62
2022/10/12 05:33:37;;;;;;;7.97;3.10;;;6.00;99.90;;;;;;5092356;28;20563;-60
2022/10/12 05:36:04;;;;;;;7.37;2.67;;;5.90;99.90;;;;;;5092881;28;20238;-59
2022/10/12 05:38:32;;;;;;;9.83;3.43;;;5.80;99.90;;;;;;5092381;28;20228;-61
2022/10/12 05:40:58;;;;;;;8.87;4.30;;;5.80;99.90;;;;;;5092564;28;20254;-59
2022/10/12 05:43:25;;;;;;;10.97;4.00;;;5.80;99.90;;;;;;5091400;28;20277;-57
2022/10/12 05:45:52;;;;;;;6.13;3.50;;;5.80;99.90;;;;;;5092653;28;20218;-59
2022/10/12 05:48:18;;;;;;;10.20;3.80;;;5.70;99.90;;;;;;5092071;28;20270;-59
2022/10/12 05:50:45;;;;;;;10.40;4.37;;;5.70;99.90;;;;;;5092468;28;20205;-60
2022/10/12 05:53:12;;;;;;;8.53;4.17;;;5.60;99.90;;;;;;5092193;28;20655;-58
2022/10/12 05:55:40;;;;;;;12.10;4.60;;;5.60;99.90;;;;;;5079912;28;21047;-58
2022/10/12 05:58:07;;;;;;;8.83;4.03;;;5.50;99.90;;;;;;5089683;28;20658;-59
2022/10/12 06:00:33;;;;;;;9.20;4.47;;;5.60;99.90;;;;;;5091675;28;20207;-58
2022/10/12 06:03:00;;;;;;;10.33;4.17;;;5.60;99.90;;;;;;5091109;28;20227;-59
2022/10/12 06:05:27;;;;;;;9.47;4.30;;;5.60;99.90;;;;;;5091565;28;20208;-61
2022/10/12 06:07:54;;;;;;;11.90;4.23;;;5.60;99.90;;;;;;5091661;28;20203;-59
2022/10/12 06:10:20;;;;;;;9.73;4.37;;;5.60;99.90;;;;;;5090526;28;20237;-57
2022/10/12 06:12:48;;;;;;;7.63;4.30;;;5.60;99.90;;;;;;5090792;28;20208;-62
2022/10/12 06:15:15;;;;;;;8.67;4.20;;;5.60;99.90;;;;;;5091628;28;20273;-64
2022/10/12 06:17:42;;;;;;;9.33;3.80;;;5.60;99.90;;;;;;5089013;28;20261;-63
2022/10/12 06:20:09;;;;;;;11.97;3.80;;;5.50;99.90;;;;;;5091621;28;20313;-63
2022/10/12 06:22:36;;;;;;;8.97;3.43;;;5.50;99.90;;;;;;5090580;28;20203;-63
2022/10/12 06:25:03;;;;;;;9.73;5.30;;;5.50;99.90;;;;;;5091206;28;20235;-57
2022/10/12 06:27:30;;;;;;;50.57;25.67;;;5.50;99.90;;;;;;5090852;28;20211;-57
2022/10/12 06:29:58;;;;;;;23.20;12.23;;;5.50;99.90;;;;;;5092037;28;20234;-51
2022/10/12 06:32:25;;;;;;;22.33;9.37;;;5.50;99.90;;;;;;5091147;28;20206;-57
2022/10/12 06:34:52;;;;;;;10.83;6.50;;;5.50;99.90;;;;;;5091127;28;20215;-57
2022/10/12 06:37:19;;;;;;;7.87;4.13;;;5.50;99.90;;;;;;5090922;28;20216;-63
2022/10/12 06:39:45;;;;;;;7.90;3.90;;;5.50;99.90;;;;;;5090968;28;20597;-62
2022/10/12 06:42:12;;;;;;;7.93;4.03;;;5.50;99.90;;;;;;5091696;28;20708;-62
2022/10/12 06:44:39;;;;;;;4.57;3.63;;;5.50;99.90;;;;;;5089549;28;20595;-57
2022/10/12 06:47:07;;;;;;;9.77;4.50;;;5.60;99.90;;;;;;5091078;28;20200;-55
2022/10/12 06:49:33;;;;;;;5.80;3.77;;;5.60;99.90;;;;;;5090821;28;20273;-56
2022/10/12 06:52:00;;;;;;;7.87;3.77;;;5.60;99.90;;;;;;5091510;28;20253;-56
2022/10/12 06:54:27;;;;;;;6.17;3.37;;;5.70;99.90;;;;;;5091627;28;20229;-54
2022/10/12 06:56:53;;;;;;;10.40;3.50;;;5.80;99.90;;;;;;5091212;28;20212;-57
2022/10/12 06:59:21;;;;;;;17.13;4.30;;;5.80;99.90;;;;;;5091652;28;20244;-56
2022/10/12 07:01:48;;;;;;;7.17;3.93;;;5.90;99.90;;;;;;5091514;28;20828;-55
2022/10/12 07:04:18;;;;;;;10.47;4.43;;;6.00;99.90;;;;;;5091278;28;20307;-58
2022/10/12 07:06:44;;;;;;;8.03;4.30;;;6.10;99.90;;;;;;5090214;28;20246;-56
2022/10/12 07:09:11;;;;;;;9.60;3.70;;;6.20;99.90;;;;;;5090990;28;20628;-56
2022/10/12 07:11:38;;;;;;;13.33;3.90;;;6.30;99.90;;;;;;5090729;28;20243;-56
2022/10/12 07:14:05;;;;;;;12.23;3.93;;;6.40;99.90;;;;;;5091159;28;20227;-53
2022/10/12 07:16:31;;;;;;;8.10;3.40;;;6.60;99.90;;;;;;5090615;28;20208;-55
2022/10/12 07:18:58;;;;;;;9.03;3.70;;;6.70;99.90;;;;;;5090248;28;20232;-55
2022/10/12 07:21:27;;;;;;;8.20;3.83;;;6.80;99.90;;;;;;5091227;28;20216;-55
2022/10/12 07:23:54;;;;;;;7.13;3.27;;;6.80;99.90;;;;;;5087442;28;20601;-56
2022/10/12 07:26:20;;;;;;;7.80;3.40;;;6.90;99.90;;;;;;5090547;28;20265;-55
2022/10/12 07:28:47;;;;;;;6.97;3.80;;;7.00;99.90;;;;;;5090657;28;20232;-57
2022/10/12 07:31:14;;;;;;;8.47;2.60;;;7.10;99.90;;;;;;5090990;28;20234;-57
2022/10/12 07:33:40;;;;;;;9.90;3.60;;;7.20;99.90;;;;;;5093318;28;20208;-55
2022/10/12 07:36:08;;;;;;;10.17;3.40;;;7.30;99.90;;;;;;5094615;28;20208;-57
2022/10/12 07:38:36;;;;;;;8.17;3.60;;;7.40;99.90;;;;;;5094635;28;20224;-56
2022/10/12 07:41:04;;;;;;;9.87;3.43;;;7.50;99.90;;;;;;5094527;28;20215;-57
2022/10/12 07:43:32;;;;;;;9.20;2.83;;;7.60;99.90;;;;;;5094454;28;20232;-54
2022/10/12 07:45:58;;;;;;;7.37;3.13;;;7.70;99.90;;;;;;5093589;28;20737;-55
2022/10/12 07:48:25;;;;;;;9.17;3.27;;;7.80;99.90;;;;;;5094069;28;20234;-58
2022/10/12 07:50:52;;;;;;;10.67;3.17;;;7.90;99.90;;;;;;5094037;28;20200;-57
2022/10/12 07:53:18;;;;;;;8.03;3.00;;;8.10;99.90;;;;;;5094165;28;20209;-58
2022/10/12 07:55:46;;;;;;;7.97;3.20;;;8.20;99.90;;;;;;5094067;28;20214;-52
2022/10/12 07:58:14;;;;;;;7.93;3.07;;;8.40;99.90;;;;;;5093862;28;20212;-57
2022/10/12 08:00:40;;;;;;;6.80;2.73;;;8.60;99.90;;;;;;5094364;28;20275;-55
2022/10/12 08:03:07;;;;;;;13.80;3.47;;;8.80;99.90;;;;;;5082991;28;20259;-55
2022/10/12 08:05:36;;;;;;;4.10;2.33;;;9.00;99.90;;;;;;5092644;28;20702;-56
2022/10/12 08:08:03;;;;;;;10.27;2.87;;;9.20;99.90;;;;;;5093123;28;20204;-56
2022/10/12 08:10:33;;;;;;;9.30;3.40;;;9.50;99.90;;;;;;5094023;28;20208;-53
2022/10/12 08:13:01;;;;;;;11.87;2.83;;;9.70;99.10;;;;;;5093545;28;20607;-61
2022/10/12 08:15:28;;;;;;;7.20;2.77;;;9.90;90.80;;;;;;5093604;28;20257;-57
2022/10/12 08:17:54;;;;;;;13.13;3.10;;;10.10;80.90;;;;;;5093494;28;20207;-61
2022/10/12 08:20:21;;;;;;;9.93;3.33;;;10.20;91.30;;;;;;5093990;28;20625;-60
2022/10/12 08:22:48;;;;;;;10.40;3.17;;;10.40;94.50;;;;;;5093700;28;20204;-60
2022/10/12 08:25:14;;;;;;;6.00;2.87;;;10.50;83.60;;;;;;5093369;28;20258;-62
2022/10/12 08:27:41;;;;;;;8.27;2.90;;;10.70;85.30;;;;;;5093280;28;20204;-61
2022/10/12 08:30:10;;;;;;;8.43;2.77;;;10.90;78.00;;;;;;5092746;28;20224;-59
2022/10/12 08:32:37;;;;;;;6.07;2.37;;;11.00;71.00;;;;;;5093771;28;20281;-62
2022/10/12 08:35:04;;;;;;;9.17;2.37;;;11.20;53.00;;;;;;5093192;28;20532;-62
2022/10/12 08:37:31;;;;;;;8.90;2.23;;;11.30;54.90;;;;;;5093160;28;20204;-62
2022/10/12 08:39:58;;;;;;;5.13;1.83;;;11.50;52.10;;;;;;5093189;28;20236;-63
2022/10/12 08:42:35;;;;;;;9.27;2.03;;;11.70;39.00;;;;;;5093002;28;20234;-64
2022/10/12 08:45:17;;;;;;;8.73;1.80;;;11.80;46.20;;;;;;5092619;28;20230;-59
2022/10/12 08:47:50;;;;;;;5.63;1.90;;;11.90;44.90;;;;;;5092442;28;20272;-60
2022/10/12 08:50:22;;;;;;;6.47;1.93;;;11.90;49.60;;;;;;5093392;28;20230;-58
2022/10/12 08:52:55;;;;;;;6.77;2.10;;;12.00;34.30;;;;;;5092603;28;20204;-58
2022/10/12 08:55:32;;;;;;;6.23;1.93;;;12.10;35.50;;;;;;5093416;28;20196;-58
2022/10/12 08:57:59;;;;;;;6.33;1.93;;;12.00;10.50;;;;;;5092268;28;20203;-57
2022/10/12 09:00:30;;;;;;;6.27;2.33;;;12.10;27.40;;;;;;5093163;28;20228;-62
2022/10/12 09:03:08;;;;;;;8.53;1.93;;;12.10;9.90;;;;;;5092576;28;20207;-59
2022/10/12 09:05:41;;;;;;;5.30;2.30;;;12.20;13.90;;;;;;5092678;28;20298;-62
2022/10/12 09:08:14;;;;;;;8.70;2.70;;;12.10;5.40;;;;;;5091952;28;20230;-59
2022/10/12 09:10:45;;;;;;;7.37;1.93;;;12.20;4.60;;;;;;5093147;28;20211;-59
2022/10/12 09:13:26;;;;;;;8.23;2.97;;;12.30;13.90;;;;;;5092857;28;20660;-62
2022/10/12 09:15:59;;;;;;;11.13;2.60;;;12.30;1.00;;;;;;5077010;28;20203;-62
2022/10/12 09:18:34;;;;;;;6.73;2.57;;;12.30;1.00;;;;;;5070621;28;20231;-62
2022/10/12 09:21:02;;;;;;;5.33;2.60;;;12.30;1.00;;;;;;5088322;28;20614;-62
2022/10/12 09:23:33;;;;;;;9.93;2.90;;;12.30;1.00;;;;;;5092501;28;20204;-63
2022/10/12 09:26:07;;;;;;;7.47;2.00;;;12.30;1.00;;;;;;5091698;28;20274;-66
2022/10/12 09:28:39;;;;;;;11.53;3.20;;;12.30;1.00;;;;;;5091975;28;20232;-62
2022/10/12 09:31:25;;;;;;;7.53;2.93;;;12.40;1.00;;;;;;5092179;28;20303;-60
2022/10/12 09:33:56;;;;;;;7.77;2.87;;;12.40;1.00;;;;;;5092467;28;20211;-63
2022/10/12 09:36:25;;;;;;;6.33;2.20;;;12.50;1.00;;;;;;5087047;28;20242;-64
2022/10/12 09:38:52;;;;;;;5.40;2.43;;;12.50;1.00;;;;;;5086587;28;20851;-65
2022/10/12 09:41:21;;;;;;;8.27;2.60;;;12.70;1.00;;;;;;5091763;28;20199;-63
2022/10/12 09:43:50;;;;;;;6.23;2.30;;;12.70;99.90;;;;;;5090602;28;20211;-68
2022/10/12 09:46:28;;;;;;;5.80;2.40;;;12.90;99.90;;;;;;5092206;28;20208;-65
2022/10/12 09:48:57;;;;;;;5.77;2.43;;;13.00;99.90;;;;;;5091364;28;20753;-64
2022/10/12 09:51:24;;;;;;;8.73;2.40;;;13.20;99.90;;;;;;5091924;28;20303;-65
2022/10/12 09:53:53;;;;;;;5.53;2.20;;;13.30;99.90;;;;;;5091506;28;20219;-64
2022/10/12 09:56:25;;;;;;;3.67;2.00;;;13.40;99.90;;;;;;5091160;28;20241;-65
2022/10/12 09:58:55;;;;;;;8.20;2.10;;;13.40;1.80;;;;;;5091287;28;20262;-58
2022/10/12 10:01:25;;;;;;;12.80;2.53;;;13.40;1.00;;;;;;5092247;28;20299;-61
2022/10/12 10:04:23;;;;;;;8.07;1.93;;;13.30;99.90;;;;;;5091395;28;20203;-62
2022/10/12 10:06:50;;;;;;;8.00;2.00;;;13.50;1.00;;;;;;5009548;28;20288;-62
2022/10/12 10:09:28;;;;;;;5.70;2.40;;;13.60;99.90;;;;;;5072056;28;20238;-63
2022/10/12 10:11:55;;;;;;;8.60;1.87;;;13.90;1.00;;;;;;5091623;28;20252;-63
2022/10/12 10:14:22;;;;;;;5.63;2.30;;;14.00;1.90;;;;;;5091698;28;20663;-63
2022/10/12 10:16:53;;;;;;;5.83;2.13;;;14.20;99.90;;;;;;5091360;28;20208;-61
2022/10/12 10:19:25;;;;;;;8.53;2.57;;;14.30;39.70;;;;;;5091429;28;20657;-62
2022/10/12 10:21:53;;;;;;;7.73;2.23;;;14.40;1.00;;;;;;5091186;28;20666;-61
2022/10/12 10:24:27;;;;;;;8.87;2.17;;;14.50;99.90;;;;;;5091332;28;20698;-61
2022/10/12 10:26:56;;;;;;;8.17;1.83;;;14.60;1.00;;;;;;5089942;28;20216;-60
2022/10/12 10:29:41;;;;;;;8.07;1.90;;;14.70;99.90;;;;;;5077830;28;20228;-61
2022/10/12 10:32:22;;;;;;;6.60;1.90;;;14.70;1.00;;;;;;5091218;28;20208;-61
2022/10/12 10:35:01;;;;;;;7.47;2.37;;;14.80;22.00;;;;;;5091461;28;20204;-60
2022/10/12 10:37:29;;;;;;;9.23;2.37;;;14.90;1.00;;;;;;5070942;28;20287;-61
2022/10/12 10:39:57;;;;;;;4.33;1.80;;;14.90;63.30;;;;;;5089576;28;20228;-65
2022/10/12 10:42:28;;;;;;;6.17;1.90;;;14.80;99.90;;;;;;5092061;28;20200;-63
2022/10/12 10:44:59;;;;;;;5.63;1.80;;;14.70;1.00;;;;;;5086752;28;20251;-64
2022/10/12 10:47:29;;;;;;;7.40;1.77;;;14.70;1.00;;;;;;5086191;28;20208;-67
2022/10/12 10:49:58;;;;;;;6.70;2.80;;;14.70;1.00;;;;;;5087341;28;20690;-62
2022/10/12 10:52:27;;;;;;;7.67;2.20;;;14.90;1.00;;;;;;5091194;28;20235;-60
2022/10/12 10:55:18;;;;;;;5.87;1.97;;;15.00;1.00;;;;;;5090930;28;20609;-60
2022/10/12 10:57:50;;;;;;;5.70;1.83;;;15.10;99.90;;;;;;5090931;28;20590;-58
2022/10/12 11:00:20;;;;;;;5.80;2.20;;;15.20;1.00;;;;;;5090210;28;20718;-60
2022/10/12 11:02:52;;;;;;;3.53;2.20;;;15.40;1.00;;;;;;5091138;28;20229;-59
2022/10/12 11:05:21;;;;;;;6.40;2.20;;;15.40;13.70;;;;;;5090669;28;20252;-59
2022/10/12 11:07:51;;;;;;;7.07;1.87;;;15.40;1.00;;;;;;5093004;28;20200;-56
2022/10/12 11:10:24;;;;;;;8.80;2.10;;;15.40;99.90;;;;;;5094805;28;20220;-61
2022/10/12 11:12:57;;;;;;;7.47;1.93;;;15.30;38.30;;;;;;5095303;28;20204;-57
2022/10/12 11:15:28;;;;;;;5.27;1.93;;;15.30;8.00;;;;;;5095416;28;20207;-60
2022/10/12 11:18:03;;;;;;;8.77;2.03;;;15.20;99.90;;;;;;5094378;28;20621;-59
2022/10/12 11:20:43;;;;;;;6.00;1.90;;;15.30;99.90;;;;;;5094674;28;20204;-60
2022/10/12 11:23:18;;;;;;;7.30;2.03;;;15.40;1.00;;;;;;5094251;28;20689;-61
2022/10/12 11:25:56;;;;;;;7.33;1.83;;;15.40;99.90;;;;;;5095016;28;20280;-66
2022/10/12 11:28:26;;;;;;;4.37;1.50;;;15.50;1.00;;;;;;5094467;28;20273;-62
2022/10/12 11:30:53;;;;;;;5.43;1.30;;;15.60;1.00;;;;;;5093396;28;20667;-61
2022/10/12 11:33:23;;;;;;;6.57;1.57;;;15.40;99.90;;;;;;5093868;28;20669;-63
2022/10/12 11:35:52;;;;;;;5.37;1.20;;;15.20;99.90;;;;;;5095009;28;20208;-62
2022/10/12 11:38:23;;;;;;;6.03;1.43;;;15.30;1.00;;;;;;5092590;28;20228;-62
2022/10/12 11:40:53;;;;;;;3.67;1.33;;;15.40;1.00;;;;;;5093723;28;20291;-66
2022/10/12 11:43:24;;;;;;;4.47;1.70;;;15.60;1.00;;;;;;5094456;28;20208;-64
2022/10/12 11:45:54;;;;;;;9.00;1.80;;;15.60;1.00;;;;;;5094297;28;20277;-65
2022/10/12 11:48:27;;;;;;;2.83;1.40;;;15.50;1.00;;;;;;5092497;28;20228;-66
2022/10/12 11:50:56;;;;;;;4.77;2.40;;;15.60;1.00;;;;;;5089459;28;20699;-66
2022/10/12 11:53:30;;;;;;;5.47;1.90;;;15.70;1.00;;;;;;5092809;28;20253;-63
2022/10/12 11:56:07;;;;;;;4.40;2.00;;;15.90;99.90;;;;;;5093116;28;20195;-64
2022/10/12 11:58:39;;;;;;;6.13;2.00;;;16.00;99.90;;;;;;5093900;28;20236;-67
2022/10/12 12:01:32;;;;;;;8.90;1.77;;;16.00;99.90;;;;;;5085948;28;20226;-64
2022/10/12 12:04:17;;;;;;;2.87;1.53;;;16.10;99.90;;;;;;5043139;28;20204;-64
2022/10/12 12:06:58;;;;;;;7.10;2.00;;;16.10;99.90;;;;;;5073171;28;20232;-61
2022/10/12 12:09:40;;;;;;;8.53;2.20;;;16.00;99.90;;;;;;5073614;28;20229;-61
2022/10/12 12:12:22;;;;;;;6.43;2.03;;;16.00;99.90;;;;;;5073796;28;20590;-61
2022/10/12 12:15:00;;;;;;;6.80;1.97;;;15.90;1.00;;;;;;5073657;28;20211;-66
2022/10/12 12:17:29;;;;;;;5.60;2.00;;;16.10;1.00;;;;;;5073376;28;20325;-66
2022/10/12 12:19:58;;;;;;;3.23;2.00;;;16.00;99.90;;;;;;5070999;28;20236;-59
2022/10/12 12:22:28;;;;;;;5.50;2.23;;;16.10;99.90;;;;;;5088655;28;20216;-61
2022/10/12 12:25:16;;;;;;;4.80;2.10;;;16.00;1.00;;;;;;5093385;28;20311;-59
2022/10/12 12:27:46;;;;;;;9.13;4.00;;;16.00;99.90;;;;;;5093712;28;20219;-60
2022/10/12 12:30:26;;;;;;;7.90;2.83;;;16.10;99.90;;;;;;5093382;28;20224;-60
2022/10/12 12:32:55;;;;;;;3.83;1.87;;;16.10;99.90;;;;;;5093976;28;20208;-59
2022/10/12 12:35:37;;;;;;;7.20;2.10;;;16.10;99.90;;;;;;5093324;28;20589;-60
2022/10/12 12:38:15;;;;;;;5.30;2.13;;;16.20;99.90;;;;;;5093678;28;20200;-60
2022/10/12 12:40:58;;;;;;;5.47;2.43;;;16.20;99.90;;;;;;5093336;28;20679;-65
2022/10/12 12:43:51;;;;;;;6.53;2.50;;;16.10;73.20;;;;;;5093488;28;20204;-63
2022/10/12 12:46:18;;;;;;;5.70;2.50;;;16.20;99.90;;;;;;5092728;28;20224;-60
2022/10/12 12:49:28;;;;;;;6.50;2.20;;;16.10;99.90;;;;;;5093246;28;20228;-60
2022/10/12 12:51:58;;;;;;;6.07;2.57;;;16.10;99.90;;;;;;5092957;28;20204;-60
2022/10/12 12:54:25;;;;;;;6.50;2.43;;;16.10;99.90;;;;;;5093217;28;20204;-58
2022/10/12 12:57:17;;;;;;;7.47;2.30;;;16.10;99.90;;;;;;5092838;28;20277;-60
2022/10/12 13:00:12;;;;;;;4.30;2.10;;;16.10;99.90;;;;;;5093008;28;20277;-61
2022/10/12 13:03:11;;;;;;;6.33;1.83;;;16.00;89.80;;;;;;5092499;28;20582;-62
2022/10/12 13:06:15;;;;;;;5.47;1.83;;;15.80;99.90;;;;;;5088012;28;20235;-61
2022/10/12 13:09:12;;;;;;;6.90;2.03;;;15.50;99.90;;;;;;5091837;28;20232;-62
2022/10/12 13:12:01;;;;;;;4.67;1.43;;;15.50;99.90;;;;;;5080783;28;20304;-61